sensor_id;sensor_type;location;lat;lon;timestamp;P1;durP1;ratioP1;P2;durP2;ratioP2
47413;SDS011;33163;0.000;0.000;2022-08-11T00:01:45;3.65;;;2.22;;
47413;SDS011;33163;0.000;0.000;2022-08-11T00:04:13;3.28;;;2.03;;
47413;SDS011;33163;0.000;0.000;2022-08-11T00:06:42;2.17;;;1.73;;
47413;SDS011;33163;0.000;0.000;2022-08-11T00:09:12;2.95;;;1.83;;
47413;SDS011;33163;0.000;0.000;2022-08-11T00:11:44;3.05;;;2.25;;
47413;SDS011;33163;0.000;0.000;2022-08-11T00:14:15;2.00;;;1.70;;
47413;SDS011;33163;0.000;0.000;2022-08-11T00:16:43;3.72;;;2.30;;
47413;SDS011;33163;0.000;0.000;2022-08-11T00:19:21;5.10;;;1.77;;
47413;SDS011;33163;0.000;0.000;2022-08-11T00:21:51;2.60;;;1.90;;
47413;SDS011;33163;0.000;0.000;2022-08-11T00:24:19;2.55;;;1.52;;
47413;SDS011;33163;0.000;0.000;2022-08-11T00:26:50;2.25;;;2.05;;
47413;SDS011;33163;0.000;0.000;2022-08-11T00:29:18;2.63;;;1.75;;
47413;SDS011;33163;0.000;0.000;2022-08-11T00:31:47;2.97;;;2.15;;
47413;SDS011;33163;0.000;0.000;2022-08-11T00:34:16;3.58;;;1.90;;
47413;SDS011;33163;0.000;0.000;2022-08-11T00:36:47;2.65;;;1.60;;
47413;SDS011;33163;0.000;0.000;2022-08-11T00:39:16;3.83;;;1.88;;
47413;SDS011;33163;0.000;0.000;2022-08-11T00:41:48;2.38;;;1.77;;
47413;SDS011;33163;0.000;0.000;2022-08-11T00:44:32;2.47;;;1.80;;
47413;SDS011;33163;0.000;0.000;2022-08-11T00:47:17;3.40;;;2.13;;
47413;SDS011;33163;0.000;0.000;2022-08-11T00:49:53;3.67;;;1.60;;
47413;SDS011;33163;0.000;0.000;2022-08-11T00:52:30;5.63;;;2.10;;
47413;SDS011;33163;0.000;0.000;2022-08-11T00:55:24;1.70;;;1.60;;
47413;SDS011;33163;0.000;0.000;2022-08-11T01:01:46;1.92;;;1.70;;
47413;SDS011;33163;0.000;0.000;2022-08-11T01:10:34;3.90;;;2.00;;
47413;SDS011;33163;0.000;0.000;2022-08-11T01:13:41;2.17;;;1.90;;
47413;SDS011;33163;0.000;0.000;2022-08-11T01:16:59;2.67;;;1.77;;
47413;SDS011;33163;0.000;0.000;2022-08-11T01:20:07;2.70;;;1.92;;
47413;SDS011;33163;0.000;0.000;2022-08-11T01:22:50;2.55;;;1.80;;
47413;SDS011;33163;0.000;0.000;2022-08-11T01:35:32;2.70;;;2.10;;
47413;SDS011;33163;0.000;0.000;2022-08-11T01:38:19;1.75;;;1.60;;
47413;SDS011;33163;0.000;0.000;2022-08-11T01:41:21;2.63;;;1.90;;
47413;SDS011;33163;0.000;0.000;2022-08-11T01:44:35;2.13;;;1.73;;
47413;SDS011;33163;0.000;0.000;2022-08-11T01:47:23;2.65;;;1.80;;
47413;SDS011;33163;0.000;0.000;2022-08-11T01:50:19;2.05;;;1.60;;
47413;SDS011;33163;0.000;0.000;2022-08-11T01:52:59;3.13;;;1.88;;
47413;SDS011;33163;0.000;0.000;2022-08-11T01:55:36;2.10;;;1.80;;
47413;SDS011;33163;0.000;0.000;2022-08-11T01:58:12;2.30;;;1.75;;
47413;SDS011;33163;0.000;0.000;2022-08-11T02:00:47;1.52;;;1.42;;
47413;SDS011;33163;0.000;0.000;2022-08-11T02:03:26;2.30;;;1.75;;
47413;SDS011;33163;0.000;0.000;2022-08-11T02:06:02;1.70;;;1.50;;
47413;SDS011;33163;0.000;0.000;2022-08-11T02:08:54;4.15;;;1.73;;
47413;SDS011;33163;0.000;0.000;2022-08-11T02:11:29;3.20;;;1.95;;
47413;SDS011;33163;0.000;0.000;2022-08-11T02:16:57;1.83;;;1.73;;
47413;SDS011;33163;0.000;0.000;2022-08-11T02:19:35;3.90;;;2.05;;
47413;SDS011;33163;0.000;0.000;2022-08-11T02:22:35;2.00;;;1.75;;
47413;SDS011;33163;0.000;0.000;2022-08-11T02:25:33;2.85;;;1.98;;
47413;SDS011;33163;0.000;0.000;2022-08-11T02:28:05;2.28;;;1.80;;
47413;SDS011;33163;0.000;0.000;2022-08-11T02:30:37;2.53;;;1.92;;
47413;SDS011;33163;0.000;0.000;2022-08-11T02:33:40;2.22;;;1.75;;
47413;SDS011;33163;0.000;0.000;2022-08-11T02:36:07;1.95;;;1.60;;
47413;SDS011;33163;0.000;0.000;2022-08-11T02:38:42;2.75;;;1.60;;
47413;SDS011;33163;0.000;0.000;2022-08-11T02:41:22;5.22;;;2.25;;
47413;SDS011;33163;0.000;0.000;2022-08-11T02:44:15;2.33;;;1.70;;
47413;SDS011;33163;0.000;0.000;2022-08-11T02:46:55;1.55;;;1.45;;
47413;SDS011;33163;0.000;0.000;2022-08-11T02:49:34;1.60;;;1.50;;
47413;SDS011;33163;0.000;0.000;2022-08-11T02:52:19;2.17;;;1.80;;
47413;SDS011;33163;0.000;0.000;2022-08-11T02:54:52;2.03;;;1.77;;
47413;SDS011;33163;0.000;0.000;2022-08-11T02:57:46;3.47;;;1.98;;
47413;SDS011;33163;0.000;0.000;2022-08-11T03:00:18;3.53;;;1.92;;
47413;SDS011;33163;0.000;0.000;2022-08-11T03:02:53;3.08;;;1.77;;
47413;SDS011;33163;0.000;0.000;2022-08-11T03:05:47;2.42;;;1.60;;
47413;SDS011;33163;0.000;0.000;2022-08-11T03:08:28;2.20;;;1.70;;
47413;SDS011;33163;0.000;0.000;2022-08-11T03:11:06;2.70;;;2.00;;
47413;SDS011;33163;0.000;0.000;2022-08-11T03:14:09;2.08;;;1.77;;
47413;SDS011;33163;0.000;0.000;2022-08-11T03:16:59;2.13;;;1.95;;
47413;SDS011;33163;0.000;0.000;2022-08-11T03:19:33;1.75;;;1.25;;
47413;SDS011;33163;0.000;0.000;2022-08-11T03:22:08;2.47;;;1.80;;
47413;SDS011;33163;0.000;0.000;2022-08-11T03:24:48;2.67;;;1.70;;
47413;SDS011;33163;0.000;0.000;2022-08-11T03:27:24;1.95;;;1.77;;
47413;SDS011;33163;0.000;0.000;2022-08-11T03:30:03;2.15;;;1.73;;
47413;SDS011;33163;0.000;0.000;2022-08-11T03:32:34;2.40;;;1.95;;
47413;SDS011;33163;0.000;0.000;2022-08-11T03:35:07;2.03;;;1.77;;
47413;SDS011;33163;0.000;0.000;2022-08-11T03:37:38;3.83;;;1.80;;
47413;SDS011;33163;0.000;0.000;2022-08-11T03:40:23;2.90;;;1.60;;
47413;SDS011;33163;0.000;0.000;2022-08-11T03:43:28;3.20;;;2.00;;
47413;SDS011;33163;0.000;0.000;2022-08-11T03:46:11;2.10;;;1.90;;
47413;SDS011;33163;0.000;0.000;2022-08-11T03:48:46;2.22;;;1.73;;
47413;SDS011;33163;0.000;0.000;2022-08-11T03:51:21;1.85;;;1.65;;
47413;SDS011;33163;0.000;0.000;2022-08-11T03:53:59;3.33;;;2.10;;
47413;SDS011;33163;0.000;0.000;2022-08-11T03:56:47;1.77;;;1.67;;
47413;SDS011;33163;0.000;0.000;2022-08-11T03:59:43;2.40;;;;;
47413;SDS011;33163;0.000;0.000;2022-08-11T04:05:26;3.22;;;1.67;;
47413;SDS011;33163;0.000;0.000;2022-08-11T04:08:29;3.03;;;1.67;;
47413;SDS011;33163;0.000;0.000;2022-08-11T04:11:26;1.98;;;1.50;;
47413;SDS011;33163;0.000;0.000;2022-08-11T04:14:28;2.42;;;1.83;;
47413;SDS011;33163;0.000;0.000;2022-08-11T04:20:39;2.13;;;1.85;;
47413;SDS011;33163;0.000;0.000;2022-08-11T04:23:40;2.08;;;1.90;;
47413;SDS011;33163;0.000;0.000;2022-08-11T04:29:41;2.30;;;1.65;;
47413;SDS011;33163;0.000;0.000;2022-08-11T04:32:28;1.90;;;1.38;;
47413;SDS011;33163;0.000;0.000;2022-08-11T04:35:16;2.83;;;1.45;;
47413;SDS011;33163;0.000;0.000;2022-08-11T04:40:52;1.90;;;1.70;;
47413;SDS011;33163;0.000;0.000;2022-08-11T04:43:47;1.80;;;1.52;;
47413;SDS011;33163;0.000;0.000;2022-08-11T04:49:47;3.50;;;2.15;;
47413;SDS011;33163;0.000;0.000;2022-08-11T04:53:00;1.90;;;1.70;;
47413;SDS011;33163;0.000;0.000;2022-08-11T04:56:09;1.98;;;1.77;;
47413;SDS011;33163;0.000;0.000;2022-08-11T04:59:06;2.28;;;1.63;;
47413;SDS011;33163;0.000;0.000;2022-08-11T05:05:21;3.33;;;2.05;;
47413;SDS011;33163;0.000;0.000;2022-08-11T05:11:22;3.08;;;1.58;;
47413;SDS011;33163;0.000;0.000;2022-08-11T05:14:19;3.05;;;1.70;;
47413;SDS011;33163;0.000;0.000;2022-08-11T05:17:15;2.30;;;1.77;;
47413;SDS011;33163;0.000;0.000;2022-08-11T05:20:08;1.83;;;1.73;;
47413;SDS011;33163;0.000;0.000;2022-08-11T05:22:54;1.85;;;1.63;;
47413;SDS011;33163;0.000;0.000;2022-08-11T05:25:43;2.05;;;1.85;;
47413;SDS011;33163;0.000;0.000;2022-08-11T05:28:32;2.10;;;1.90;;
47413;SDS011;33163;0.000;0.000;2022-08-11T05:31:21;3.40;;;1.90;;
47413;SDS011;33163;0.000;0.000;2022-08-11T05:34:10;3.00;;;1.92;;
47413;SDS011;33163;0.000;0.000;2022-08-11T05:37:01;2.85;;;1.90;;
47413;SDS011;33163;0.000;0.000;2022-08-11T05:39:32;2.15;;;1.90;;
47413;SDS011;33163;0.000;0.000;2022-08-11T05:42:22;2.58;;;1.70;;
47413;SDS011;33163;0.000;0.000;2022-08-11T05:47:55;2.13;;;1.77;;
47413;SDS011;33163;0.000;0.000;2022-08-11T05:50:40;3.75;;;1.85;;
47413;SDS011;33163;0.000;0.000;2022-08-11T05:53:33;1.85;;;1.40;;
47413;SDS011;33163;0.000;0.000;2022-08-11T05:56:17;4.47;;;1.75;;
47413;SDS011;33163;0.000;0.000;2022-08-11T05:58:46;2.25;;;1.75;;
47413;SDS011;33163;0.000;0.000;2022-08-11T06:01:21;2.50;;;1.55;;
47413;SDS011;33163;0.000;0.000;2022-08-11T06:03:49;3.08;;;1.60;;
47413;SDS011;33163;0.000;0.000;2022-08-11T06:06:36;2.08;;;1.73;;
47413;SDS011;33163;0.000;0.000;2022-08-11T06:09:05;2.38;;;1.65;;
47413;SDS011;33163;0.000;0.000;2022-08-11T06:11:36;3.08;;;2.10;;
47413;SDS011;33163;0.000;0.000;2022-08-11T06:14:04;1.92;;;1.42;;
47413;SDS011;33163;0.000;0.000;2022-08-11T06:16:33;1.67;;;1.58;;
47413;SDS011;33163;0.000;0.000;2022-08-11T06:19:00;2.45;;;1.63;;
47413;SDS011;33163;0.000;0.000;2022-08-11T06:21:30;4.30;;;1.80;;
47413;SDS011;33163;0.000;0.000;2022-08-11T06:24:00;3.55;;;1.48;;
47413;SDS011;33163;0.000;0.000;2022-08-11T06:26:28;2.10;;;1.83;;
47413;SDS011;33163;0.000;0.000;2022-08-11T06:28:56;1.98;;;1.77;;
47413;SDS011;33163;0.000;0.000;2022-08-11T06:31:25;4.80;;;3.10;;
47413;SDS011;33163;0.000;0.000;2022-08-11T06:33:56;6.97;;;3.92;;
47413;SDS011;33163;0.000;0.000;2022-08-11T06:36:35;9.48;;;3.50;;
47413;SDS011;33163;0.000;0.000;2022-08-11T06:39:11;9.57;;;3.85;;
47413;SDS011;33163;0.000;0.000;2022-08-11T06:41:47;6.07;;;3.50;;
47413;SDS011;33163;0.000;0.000;2022-08-11T06:44:20;5.90;;;3.78;;
47413;SDS011;33163;0.000;0.000;2022-08-11T06:46:52;8.55;;;3.47;;
47413;SDS011;33163;0.000;0.000;2022-08-11T06:49:31;8.43;;;4.22;;
47413;SDS011;33163;0.000;0.000;2022-08-11T06:52:17;12.00;;;3.35;;
47413;SDS011;33163;0.000;0.000;2022-08-11T06:54:48;8.45;;;3.30;;
47413;SDS011;33163;0.000;0.000;2022-08-11T06:57:28;6.60;;;3.60;;
47413;SDS011;33163;0.000;0.000;2022-08-11T07:00:14;7.03;;;3.53;;
47413;SDS011;33163;0.000;0.000;2022-08-11T07:02:56;11.15;;;3.58;;
47413;SDS011;33163;0.000;0.000;2022-08-11T07:05:30;9.98;;;3.60;;
47413;SDS011;33163;0.000;0.000;2022-08-11T07:08:13;7.20;;;3.30;;
47413;SDS011;33163;0.000;0.000;2022-08-11T07:17:14;6.90;;;3.97;;
47413;SDS011;33163;0.000;0.000;2022-08-11T07:19:44;7.97;;;3.55;;
47413;SDS011;33163;0.000;0.000;2022-08-11T07:22:45;8.65;;;3.45;;
47413;SDS011;33163;0.000;0.000;2022-08-11T07:25:34;6.82;;;2.85;;
47413;SDS011;33163;0.000;0.000;2022-08-11T07:28:22;10.45;;;4.03;;
47413;SDS011;33163;0.000;0.000;2022-08-11T07:31:09;5.80;;;3.45;;
47413;SDS011;33163;0.000;0.000;2022-08-11T07:33:41;8.57;;;3.53;;
47413;SDS011;33163;0.000;0.000;2022-08-11T07:36:11;5.20;;;3.22;;
47413;SDS011;33163;0.000;0.000;2022-08-11T07:38:43;6.18;;;2.72;;
47413;SDS011;33163;0.000;0.000;2022-08-11T07:41:15;6.57;;;3.33;;
47413;SDS011;33163;0.000;0.000;2022-08-11T07:43:43;8.85;;;3.25;;
47413;SDS011;33163;0.000;0.000;2022-08-11T07:46:13;7.03;;;3.00;;
47413;SDS011;33163;0.000;0.000;2022-08-11T07:48:58;6.18;;;3.00;;
47413;SDS011;33163;0.000;0.000;2022-08-11T07:51:44;6.20;;;3.00;;
47413;SDS011;33163;0.000;0.000;2022-08-11T07:54:30;9.52;;;2.80;;
47413;SDS011;33163;0.000;0.000;2022-08-11T07:56:57;9.85;;;2.40;;
47413;SDS011;33163;0.000;0.000;2022-08-11T07:59:24;6.47;;;2.60;;
47413;SDS011;33163;0.000;0.000;2022-08-11T08:02:11;6.72;;;2.72;;
47413;SDS011;33163;0.000;0.000;2022-08-11T08:04:55;5.13;;;2.72;;
47413;SDS011;33163;0.000;0.000;2022-08-11T08:07:41;5.18;;;2.67;;
47413;SDS011;33163;0.000;0.000;2022-08-11T08:10:27;6.78;;;2.67;;
47413;SDS011;33163;0.000;0.000;2022-08-11T08:13:13;3.40;;;2.08;;
47413;SDS011;33163;0.000;0.000;2022-08-11T08:15:58;5.78;;;2.42;;
47413;SDS011;33163;0.000;0.000;2022-08-11T08:18:43;4.60;;;2.43;;
47413;SDS011;33163;0.000;0.000;2022-08-11T08:21:11;2.28;;;2.08;;
47413;SDS011;33163;0.000;0.000;2022-08-11T08:23:39;3.67;;;2.25;;
47413;SDS011;33163;0.000;0.000;2022-08-11T08:26:10;6.30;;;2.45;;
47413;SDS011;33163;0.000;0.000;2022-08-11T08:28:52;3.78;;;2.53;;
47413;SDS011;33163;0.000;0.000;2022-08-11T08:31:41;4.80;;;2.55;;
47413;SDS011;33163;0.000;0.000;2022-08-11T08:34:07;4.43;;;1.85;;
47413;SDS011;33163;0.000;0.000;2022-08-11T08:36:34;2.55;;;2.00;;
47413;SDS011;33163;0.000;0.000;2022-08-11T08:39:02;6.45;;;2.17;;
47413;SDS011;33163;0.000;0.000;2022-08-11T08:41:31;3.67;;;1.98;;
47413;SDS011;33163;0.000;0.000;2022-08-11T08:44:03;2.90;;;2.22;;
47413;SDS011;33163;0.000;0.000;2022-08-11T08:46:35;2.50;;;1.83;;
47413;SDS011;33163;0.000;0.000;2022-08-11T08:49:05;2.92;;;2.00;;
47413;SDS011;33163;0.000;0.000;2022-08-11T08:51:35;3.60;;;2.08;;
47413;SDS011;33163;0.000;0.000;2022-08-11T08:54:06;3.03;;;2.30;;
47413;SDS011;33163;0.000;0.000;2022-08-11T08:56:37;4.88;;;2.72;;
47413;SDS011;33163;0.000;0.000;2022-08-11T08:59:05;4.60;;;2.70;;
47413;SDS011;33163;0.000;0.000;2022-08-11T09:01:35;2.60;;;2.20;;
47413;SDS011;33163;0.000;0.000;2022-08-11T09:04:06;2.95;;;2.13;;
47413;SDS011;33163;0.000;0.000;2022-08-11T09:06:34;4.57;;;2.00;;
47413;SDS011;33163;0.000;0.000;2022-08-11T09:09:05;3.53;;;1.88;;
47413;SDS011;33163;0.000;0.000;2022-08-11T09:11:33;2.20;;;1.83;;
47413;SDS011;33163;0.000;0.000;2022-08-11T09:14:16;7.05;;;1.80;;
47413;SDS011;33163;0.000;0.000;2022-08-11T09:16:45;3.40;;;2.13;;
47413;SDS011;33163;0.000;0.000;2022-08-11T09:19:14;4.35;;;1.95;;
47413;SDS011;33163;0.000;0.000;2022-08-11T09:21:43;4.00;;;2.28;;
47413;SDS011;33163;0.000;0.000;2022-08-11T09:24:31;4.88;;;1.88;;
47413;SDS011;33163;0.000;0.000;2022-08-11T09:29:46;2.60;;;1.98;;
47413;SDS011;33163;0.000;0.000;2022-08-11T09:32:13;2.88;;;2.40;;
47413;SDS011;33163;0.000;0.000;2022-08-11T09:34:44;5.07;;;1.70;;
47413;SDS011;33163;0.000;0.000;2022-08-11T09:37:11;4.15;;;1.98;;
47413;SDS011;33163;0.000;0.000;2022-08-11T09:39:56;2.90;;;2.13;;
47413;SDS011;33163;0.000;0.000;2022-08-11T09:42:41;2.55;;;1.98;;
47413;SDS011;33163;0.000;0.000;2022-08-11T09:45:28;2.15;;;1.92;;
47413;SDS011;33163;0.000;0.000;2022-08-11T09:47:57;4.78;;;2.30;;
47413;SDS011;33163;0.000;0.000;2022-08-11T09:50:26;3.58;;;1.95;;
47413;SDS011;33163;0.000;0.000;2022-08-11T09:52:53;3.45;;;1.75;;
47413;SDS011;33163;0.000;0.000;2022-08-11T09:55:20;5.15;;;2.47;;
47413;SDS011;33163;0.000;0.000;2022-08-11T09:57:48;2.42;;;1.90;;
47413;SDS011;33163;0.000;0.000;2022-08-11T10:00:34;3.72;;;2.13;;
47413;SDS011;33163;0.000;0.000;2022-08-11T10:03:02;5.03;;;2.45;;
47413;SDS011;33163;0.000;0.000;2022-08-11T10:05:32;3.65;;;2.20;;
47413;SDS011;33163;0.000;0.000;2022-08-11T10:08:17;3.25;;;1.85;;
47413;SDS011;33163;0.000;0.000;2022-08-11T10:10:46;4.00;;;1.98;;
47413;SDS011;33163;0.000;0.000;2022-08-11T10:13:15;2.92;;;1.90;;
47413;SDS011;33163;0.000;0.000;2022-08-11T10:15:52;2.88;;;2.10;;
47413;SDS011;33163;0.000;0.000;2022-08-11T10:18:23;3.13;;;1.90;;
47413;SDS011;33163;0.000;0.000;2022-08-11T10:21:14;2.47;;;1.65;;
47413;SDS011;33163;0.000;0.000;2022-08-11T10:23:48;2.95;;;2.22;;
47413;SDS011;33163;0.000;0.000;2022-08-11T10:26:36;2.75;;;2.15;;
47413;SDS011;33163;0.000;0.000;2022-08-11T10:29:19;4.68;;;1.83;;
47413;SDS011;33163;0.000;0.000;2022-08-11T10:32:06;3.38;;;2.00;;
47413;SDS011;33163;0.000;0.000;2022-08-11T10:34:52;5.13;;;2.50;;
47413;SDS011;33163;0.000;0.000;2022-08-11T10:37:20;3.05;;;1.67;;
47413;SDS011;33163;0.000;0.000;2022-08-11T10:39:49;5.28;;;2.15;;
47413;SDS011;33163;0.000;0.000;2022-08-11T10:42:17;3.17;;;2.10;;
47413;SDS011;33163;0.000;0.000;2022-08-11T10:45:02;4.82;;;2.30;;
47413;SDS011;33163;0.000;0.000;2022-08-11T10:47:55;3.85;;;2.28;;
47413;SDS011;33163;0.000;0.000;2022-08-11T10:50:22;2.97;;;1.83;;
47413;SDS011;33163;0.000;0.000;2022-08-11T10:53:07;2.90;;;2.03;;
47413;SDS011;33163;0.000;0.000;2022-08-11T10:55:52;4.15;;;1.98;;
47413;SDS011;33163;0.000;0.000;2022-08-11T10:58:38;3.88;;;1.70;;
47413;SDS011;33163;0.000;0.000;2022-08-11T11:01:15;3.45;;;1.52;;
47413;SDS011;33163;0.000;0.000;2022-08-11T11:03:47;3.90;;;1.77;;
47413;SDS011;33163;0.000;0.000;2022-08-11T11:06:20;2.83;;;1.95;;
47413;SDS011;33163;0.000;0.000;2022-08-11T11:08:51;2.42;;;1.50;;
47413;SDS011;33163;0.000;0.000;2022-08-11T11:11:22;2.00;;;1.80;;
47413;SDS011;33163;0.000;0.000;2022-08-11T11:14:14;2.83;;;2.05;;
47413;SDS011;33163;0.000;0.000;2022-08-11T11:17:12;3.95;;;2.00;;
47413;SDS011;33163;0.000;0.000;2022-08-11T11:20:02;3.00;;;2.13;;
47413;SDS011;33163;0.000;0.000;2022-08-11T11:22:31;2.60;;;1.80;;
47413;SDS011;33163;0.000;0.000;2022-08-11T11:25:08;3.45;;;1.85;;
47413;SDS011;33163;0.000;0.000;2022-08-11T11:27:47;2.40;;;2.00;;
47413;SDS011;33163;0.000;0.000;2022-08-11T11:30:36;4.03;;;1.88;;
47413;SDS011;33163;0.000;0.000;2022-08-11T11:33:13;2.33;;;1.83;;
47413;SDS011;33163;0.000;0.000;2022-08-11T11:35:51;2.03;;;1.52;;
47413;SDS011;33163;0.000;0.000;2022-08-11T11:38:31;2.28;;;2.00;;
47413;SDS011;33163;0.000;0.000;2022-08-11T11:40:58;4.47;;;1.90;;
47413;SDS011;33163;0.000;0.000;2022-08-11T11:43:42;3.45;;;1.83;;
47413;SDS011;33163;0.000;0.000;2022-08-11T11:46:10;8.80;;;2.00;;
47413;SDS011;33163;0.000;0.000;2022-08-11T11:48:38;4.25;;;1.70;;
47413;SDS011;33163;0.000;0.000;2022-08-11T11:51:07;2.80;;;1.98;;
47413;SDS011;33163;0.000;0.000;2022-08-11T11:53:37;3.00;;;2.08;;
47413;SDS011;33163;0.000;0.000;2022-08-11T11:56:05;2.65;;;1.80;;
47413;SDS011;33163;0.000;0.000;2022-08-11T11:58:32;7.85;;;1.98;;
47413;SDS011;33163;0.000;0.000;2022-08-11T12:01:17;6.65;;;2.13;;
47413;SDS011;33163;0.000;0.000;2022-08-11T12:03:48;3.92;;;1.75;;
47413;SDS011;33163;0.000;0.000;2022-08-11T12:06:20;4.25;;;2.17;;
47413;SDS011;33163;0.000;0.000;2022-08-11T12:08:49;3.35;;;1.65;;
47413;SDS011;33163;0.000;0.000;2022-08-11T12:11:19;5.32;;;2.10;;
47413;SDS011;33163;0.000;0.000;2022-08-11T12:14:05;2.35;;;2.10;;
47413;SDS011;33163;0.000;0.000;2022-08-11T12:16:34;1.67;;;1.58;;
47413;SDS011;33163;0.000;0.000;2022-08-11T12:19:03;3.85;;;2.20;;
47413;SDS011;33163;0.000;0.000;2022-08-11T12:21:34;21.13;;;2.10;;
47413;SDS011;33163;0.000;0.000;2022-08-11T12:24:02;4.78;;;1.88;;
47413;SDS011;33163;0.000;0.000;2022-08-11T12:26:48;4.60;;;2.03;;
47413;SDS011;33163;0.000;0.000;2022-08-11T12:29:32;2.03;;;1.60;;
47413;SDS011;33163;0.000;0.000;2022-08-11T12:32:00;7.57;;;2.00;;
47413;SDS011;33163;0.000;0.000;2022-08-11T12:34:27;2.72;;;1.52;;
47413;SDS011;33163;0.000;0.000;2022-08-11T12:36:57;6.45;;;1.95;;
47413;SDS011;33163;0.000;0.000;2022-08-11T12:39:26;1.95;;;1.65;;
47413;SDS011;33163;0.000;0.000;2022-08-11T12:42:17;2.47;;;1.73;;
47413;SDS011;33163;0.000;0.000;2022-08-11T12:45:03;7.05;;;2.95;;
47413;SDS011;33163;0.000;0.000;2022-08-11T12:47:53;24.00;;;8.65;;
47413;SDS011;33163;0.000;0.000;2022-08-11T12:50:44;25.58;;;10.05;;
47413;SDS011;33163;0.000;0.000;2022-08-11T12:53:34;30.00;;;12.40;;
47413;SDS011;33163;0.000;0.000;2022-08-11T12:56:04;29.70;;;11.35;;
47413;SDS011;33163;0.000;0.000;2022-08-11T12:58:50;30.58;;;9.73;;
47413;SDS011;33163;0.000;0.000;2022-08-11T13:01:32;30.50;;;9.30;;
47413;SDS011;33163;0.000;0.000;2022-08-11T13:04:17;19.03;;;8.27;;
47413;SDS011;33163;0.000;0.000;2022-08-11T13:07:01;21.50;;;7.97;;
47413;SDS011;33163;0.000;0.000;2022-08-11T13:09:30;19.15;;;7.00;;
47413;SDS011;33163;0.000;0.000;2022-08-11T13:11:57;16.73;;;7.15;;
47413;SDS011;33163;0.000;0.000;2022-08-11T13:14:38;20.00;;;6.60;;
47413;SDS011;33163;0.000;0.000;2022-08-11T13:17:05;12.30;;;5.88;;
47413;SDS011;33163;0.000;0.000;2022-08-11T13:19:47;19.45;;;6.60;;
47413;SDS011;33163;0.000;0.000;2022-08-11T13:22:16;9.65;;;4.90;;
47413;SDS011;33163;0.000;0.000;2022-08-11T13:24:45;12.77;;;5.32;;
47413;SDS011;33163;0.000;0.000;2022-08-11T13:27:14;13.57;;;6.07;;
47413;SDS011;33163;0.000;0.000;2022-08-11T13:29:43;12.45;;;5.43;;
47413;SDS011;33163;0.000;0.000;2022-08-11T13:32:11;13.05;;;5.05;;
47413;SDS011;33163;0.000;0.000;2022-08-11T13:34:38;13.05;;;5.60;;
47413;SDS011;33163;0.000;0.000;2022-08-11T13:37:07;11.93;;;5.53;;
47413;SDS011;33163;0.000;0.000;2022-08-11T13:39:39;12.38;;;5.50;;
47413;SDS011;33163;0.000;0.000;2022-08-11T13:42:12;11.23;;;4.95;;
47413;SDS011;33163;0.000;0.000;2022-08-11T13:44:44;10.48;;;4.68;;
47413;SDS011;33163;0.000;0.000;2022-08-11T13:47:12;12.52;;;5.22;;
47413;SDS011;33163;0.000;0.000;2022-08-11T13:49:40;11.18;;;4.85;;
47413;SDS011;33163;0.000;0.000;2022-08-11T13:52:09;8.93;;;4.70;;
47413;SDS011;33163;0.000;0.000;2022-08-11T13:54:38;10.15;;;4.50;;
47413;SDS011;33163;0.000;0.000;2022-08-11T13:57:07;10.73;;;4.40;;
47413;SDS011;33163;0.000;0.000;2022-08-11T13:59:37;11.40;;;5.10;;
47413;SDS011;33163;0.000;0.000;2022-08-11T14:02:05;9.15;;;4.95;;
47413;SDS011;33163;0.000;0.000;2022-08-11T14:04:38;10.45;;;4.90;;
47413;SDS011;33163;0.000;0.000;2022-08-11T14:07:08;13.40;;;3.97;;
47413;SDS011;33163;0.000;0.000;2022-08-11T14:09:39;10.18;;;5.00;;
47413;SDS011;33163;0.000;0.000;2022-08-11T14:12:09;8.63;;;4.75;;
47413;SDS011;33163;0.000;0.000;2022-08-11T14:15:00;9.10;;;4.57;;
47413;SDS011;33163;0.000;0.000;2022-08-11T14:17:29;11.38;;;4.72;;
47413;SDS011;33163;0.000;0.000;2022-08-11T14:19:59;8.40;;;4.43;;
47413;SDS011;33163;0.000;0.000;2022-08-11T14:22:32;9.68;;;5.07;;
47413;SDS011;33163;0.000;0.000;2022-08-11T14:25:01;10.68;;;4.63;;
47413;SDS011;33163;0.000;0.000;2022-08-11T14:27:29;8.13;;;4.70;;
47413;SDS011;33163;0.000;0.000;2022-08-11T14:29:56;9.88;;;4.88;;
47413;SDS011;33163;0.000;0.000;2022-08-11T14:32:25;8.82;;;4.82;;
47413;SDS011;33163;0.000;0.000;2022-08-11T14:34:52;9.73;;;4.50;;
47413;SDS011;33163;0.000;0.000;2022-08-11T14:37:20;8.30;;;4.32;;
47413;SDS011;33163;0.000;0.000;2022-08-11T14:39:49;7.57;;;4.00;;
47413;SDS011;33163;0.000;0.000;2022-08-11T14:42:19;9.82;;;4.88;;
47413;SDS011;33163;0.000;0.000;2022-08-11T14:45:05;8.18;;;4.07;;
47413;SDS011;33163;0.000;0.000;2022-08-11T14:47:56;8.20;;;4.50;;
47413;SDS011;33163;0.000;0.000;2022-08-11T14:50:26;11.07;;;4.75;;
47413;SDS011;33163;0.000;0.000;2022-08-11T14:52:57;11.57;;;4.43;;
47413;SDS011;33163;0.000;0.000;2022-08-11T14:55:26;10.48;;;3.90;;
47413;SDS011;33163;0.000;0.000;2022-08-11T14:58:13;9.07;;;4.05;;
47413;SDS011;33163;0.000;0.000;2022-08-11T15:00:42;7.85;;;4.30;;
47413;SDS011;33163;0.000;0.000;2022-08-11T15:03:11;8.52;;;4.18;;
47413;SDS011;33163;0.000;0.000;2022-08-11T15:05:39;7.97;;;4.00;;
47413;SDS011;33163;0.000;0.000;2022-08-11T15:08:10;7.03;;;3.55;;
47413;SDS011;33163;0.000;0.000;2022-08-11T15:10:39;7.50;;;4.05;;
47413;SDS011;33163;0.000;0.000;2022-08-11T15:13:06;6.30;;;3.85;;
47413;SDS011;33163;0.000;0.000;2022-08-11T15:15:35;7.57;;;3.65;;
47413;SDS011;33163;0.000;0.000;2022-08-11T15:18:21;5.97;;;3.73;;
47413;SDS011;33163;0.000;0.000;2022-08-11T15:20:49;6.88;;;3.65;;
47413;SDS011;33163;0.000;0.000;2022-08-11T15:23:34;10.23;;;3.95;;
47413;SDS011;33163;0.000;0.000;2022-08-11T15:26:20;9.60;;;3.80;;
47413;SDS011;33163;0.000;0.000;2022-08-11T15:29:16;7.22;;;3.45;;
47413;SDS011;33163;0.000;0.000;2022-08-11T15:32:05;11.07;;;4.03;;
47413;SDS011;33163;0.000;0.000;2022-08-11T15:35:01;6.10;;;3.60;;
47413;SDS011;33163;0.000;0.000;2022-08-11T15:37:46;6.47;;;3.63;;
47413;SDS011;33163;0.000;0.000;2022-08-11T15:40:21;7.90;;;3.70;;
47413;SDS011;33163;0.000;0.000;2022-08-11T15:43:09;8.43;;;3.30;;
47413;SDS011;33163;0.000;0.000;2022-08-11T15:46:00;9.10;;;3.20;;
47413;SDS011;33163;0.000;0.000;2022-08-11T15:48:35;6.82;;;3.35;;
47413;SDS011;33163;0.000;0.000;2022-08-11T15:51:10;7.93;;;3.60;;
47413;SDS011;33163;0.000;0.000;2022-08-11T15:53:40;5.18;;;3.50;;
47413;SDS011;33163;0.000;0.000;2022-08-11T15:56:11;6.70;;;3.50;;
47413;SDS011;33163;0.000;0.000;2022-08-11T15:58:43;4.82;;;3.08;;
47413;SDS011;33163;0.000;0.000;2022-08-11T16:01:29;5.43;;;2.97;;
47413;SDS011;33163;0.000;0.000;2022-08-11T16:04:16;7.47;;;3.28;;
47413;SDS011;33163;0.000;0.000;2022-08-11T16:06:50;8.90;;;3.55;;
47413;SDS011;33163;0.000;0.000;2022-08-11T16:09:21;4.88;;;2.97;;
47413;SDS011;33163;0.000;0.000;2022-08-11T16:11:51;7.80;;;3.35;;
47413;SDS011;33163;0.000;0.000;2022-08-11T16:14:21;4.30;;;2.67;;
47413;SDS011;33163;0.000;0.000;2022-08-11T16:17:07;7.63;;;3.00;;
47413;SDS011;33163;0.000;0.000;2022-08-11T16:19:36;8.32;;;3.40;;
47413;SDS011;33163;0.000;0.000;2022-08-11T16:22:08;8.75;;;3.33;;
47413;SDS011;33163;0.000;0.000;2022-08-11T16:24:36;6.38;;;3.17;;
47413;SDS011;33163;0.000;0.000;2022-08-11T16:27:09;6.78;;;3.15;;
47413;SDS011;33163;0.000;0.000;2022-08-11T16:29:39;12.35;;;2.90;;
47413;SDS011;33163;0.000;0.000;2022-08-11T16:32:10;7.20;;;2.58;;
47413;SDS011;33163;0.000;0.000;2022-08-11T16:37:32;5.57;;;2.85;;
47413;SDS011;33163;0.000;0.000;2022-08-11T16:40:18;6.00;;;2.70;;
47413;SDS011;33163;0.000;0.000;2022-08-11T16:42:48;5.22;;;2.60;;
47413;SDS011;33163;0.000;0.000;2022-08-11T16:45:33;7.30;;;2.80;;
47413;SDS011;33163;0.000;0.000;2022-08-11T16:48:20;3.95;;;2.83;;
47413;SDS011;33163;0.000;0.000;2022-08-11T16:50:49;9.70;;;2.90;;
47413;SDS011;33163;0.000;0.000;2022-08-11T16:53:17;5.22;;;2.58;;
47413;SDS011;33163;0.000;0.000;2022-08-11T16:55:44;7.95;;;3.03;;
47413;SDS011;33163;0.000;0.000;2022-08-11T16:58:13;5.53;;;2.45;;
47413;SDS011;33163;0.000;0.000;2022-08-11T17:00:58;7.80;;;3.08;;
47413;SDS011;33163;0.000;0.000;2022-08-11T17:03:27;4.03;;;2.58;;
47413;SDS011;33163;0.000;0.000;2022-08-11T17:06:16;5.10;;;2.65;;